Kyokuhoumaru No.12 — JL5963 — position and weather

sailwx.info

Track history (hours):
 
Tides and Currents Weather Stations Pressure Air Temp Water Temp Dewpoint Dewpoint Depression Visibility Wind Speed Wind Dir Waves Ship Positions

Kyokuhoumaru No.12

Last reported at 2016-Apr-27 11:33 UTC. Time now 2016-Apr-29 15:52 UTC.
Position N 35°22' E 139°42'.

Length 57 m.

Type: Tanker. MMSI: 431500879.

Date/timePositionNaut miles runAvg speedWind from/ knotsBaromVisibWave heightAir tempDewpointWater temp
2016-Apr-27 11:33N 35°22' E 139°42'9 8.7
2016-Apr-27 10:29N 35°29' E 139°50'9 9.1
2016-Apr-27 09:33N 35°36' E 139°56'6 5.2
2016-Apr-27 08:29N 35°41' E 139°57'0 0.0
2016-Apr-27 07:32N 35°41' E 139°57'0 0.0
2016-Apr-27 06:32N 35°41' E 139°57'2 0.6
2016-Apr-27 03:33N 35°39' E 139°58'5 4.4
2016-Apr-27 02:32N 35°36' E 139°54'0 0.0
2016-Apr-27 01:32N 35°36' E 139°54'0 0.0
2016-Apr-27 00:32N 35°36' E 139°54'0 0.0
2016-Apr-26 23:32N 35°36' E 139°54'0 0.0
2016-Apr-26 22:32N 35°36' E 139°54'0 0.0
2016-Apr-26 21:29N 35°36' E 139°54'0 0.0
2016-Apr-26 20:32N 35°36' E 139°54'0 0.0
2016-Apr-26 19:32N 35°36' E 139°54'0 0.0
2016-Apr-26 18:32N 35°36' E 139°54'0 0.0
2016-Apr-26 17:32N 35°36' E 139°54'0 0.0
2016-Apr-26 16:32N 35°36' E 139°54'0 0.0
2016-Apr-26 15:32N 35°36' E 139°54'0 0.0
2016-Apr-26 14:32N 35°36' E 139°54'0 0.0
2016-Apr-26 13:32N 35°36' E 139°54'0 0.0
2016-Apr-26 12:23N 35°36' E 139°54'0 0.0
2016-Apr-26 11:29N 35°36' E 139°54'0 0.0
2016-Apr-26 10:26N 35°36' E 139°54'0 0.0
2016-Apr-26 09:29N 35°36' E 139°54'7 7.7
2016-Apr-26 08:33N 35°29' E 139°52'10 9.3
2016-Apr-26 07:31N 35°21' E 139°45'8 8.6
2016-Apr-26 06:33N 35°13' E 139°47'  
Track history (hours):
 
Tides and Currents Weather Stations Pressure Air Temp Water Temp Dewpoint Dewpoint Depression Visibility Wind Speed Wind Dir Waves Ship Positions

Kyokuhoumaru No.12

Last reported at 2016-Apr-27 11:33 UTC. Time now 2016-Apr-29 15:52 UTC.
Position N 35°22' E 139°42'.

Length 57 m.

Type: Tanker. MMSI: 431500879.

Date/timePositionNaut miles runAvg speedWind from/ knotsBaromVisibWave heightAir tempDewpointWater temp
2016-Apr-27 11:33N 35°22' E 139°42'9 8.7
2016-Apr-27 10:29N 35°29' E 139°50'9 9.1
2016-Apr-27 09:33N 35°36' E 139°56'6 5.2
2016-Apr-27 08:29N 35°41' E 139°57'0 0.0
2016-Apr-27 07:32N 35°41' E 139°57'0 0.0
2016-Apr-27 06:32N 35°41' E 139°57'2 0.6
2016-Apr-27 03:33N 35°39' E 139°58'5 4.4
2016-Apr-27 02:32N 35°36' E 139°54'0 0.0
2016-Apr-27 01:32N 35°36' E 139°54'0 0.0
2016-Apr-27 00:32N 35°36' E 139°54'0 0.0
2016-Apr-26 23:32N 35°36' E 139°54'0 0.0
2016-Apr-26 22:32N 35°36' E 139°54'0 0.0
2016-Apr-26 21:29N 35°36' E 139°54'0 0.0
2016-Apr-26 20:32N 35°36' E 139°54'0 0.0
2016-Apr-26 19:32N 35°36' E 139°54'0 0.0
2016-Apr-26 18:32N 35°36' E 139°54'0 0.0
2016-Apr-26 17:32N 35°36' E 139°54'0 0.0
2016-Apr-26 16:32N 35°36' E 139°54'0 0.0
2016-Apr-26 15:32N 35°36' E 139°54'0 0.0
2016-Apr-26 14:32N 35°36' E 139°54'0 0.0
2016-Apr-26 13:32N 35°36' E 139°54'0 0.0
2016-Apr-26 12:23N 35°36' E 139°54'0 0.0
2016-Apr-26 11:29N 35°36' E 139°54'0 0.0
2016-Apr-26 10:26N 35°36' E 139°54'0 0.0
2016-Apr-26 09:29N 35°36' E 139°54'7 7.7
2016-Apr-26 08:33N 35°29' E 139°52'10 9.3
2016-Apr-26 07:31N 35°21' E 139°45'8 8.6
2016-Apr-26 06:33N 35°13' E 139°47'  

Dump ship's entire track history